Lewistown, MT

6:21 AM MST on February 08, 2016 (GMT -0700)
3/4 mile S of Lewistown | | Change Station
CLOSE
Current Station
Personal Weather Station
Location: Lewistown, Mt
Elevation: 4189 ft
Nearby Weather Stations

Elev 4189 ft 47.04 °N, 109.42 °W | Updated 4 seconds ago

Clear
Clear
28.6 °F
Feels Like 21 °F
N
7.0
Wind Variable Wind from South
Gusts 11.0 mph

Today
High -- | Low -- °F
--% Chance of Precip.
Yesterday
High -- | Low -- °F
Precip. -- in
Pressure 30.52 in
Visibility 10.0 miles
Clouds Clear
Windchill 21 °F
Dew Point 21 °F
Humidity 73%
Rainfall 0.00 in
Snow Depth Not available.
7:33 AM 5:30 PM
Waning Crescent, 0% visible
METAR KLWT 081254Z AUTO 25008KT 10SM CLR M02/M08 A3040 RMK AO2 SLP334 T10221078
Pressure 30.52 in
Visibility 10.0 miles
Clouds Clear
Windchill 21 °F
Dew Point 21 °F
Humidity 73%
Rainfall 0.00 in
Snow Depth Not available.
7:33 AM 5:30 PM
Waning Crescent, 0% visible
METAR KLWT 081254Z AUTO 25008KT 10SM CLR M02/M08 A3040 RMK AO2 SLP334 T10221078

10-Day Weather Forecast

Almanac

Astronomy

Feb. 08, 2016 Rise Set
Actual Time
Civil Twilight
Nautical Twilight
Astronomical Twilight
Moon
Length of Visible Light
Length of Day
Tomorrow will be .
, % of the Moon is Illuminated

Today's Extremes

State Highs State Lows

Community

WunderPhotos

Upload Photos

1,891,434 photos uploaded!

WunderBlog® & News

Nearby

Air Quality

  Air Quality AQ Index Pollutant
Not available.

Snow Depth

Station Depth Elevation

Earthquake Activity

City Distance Mag. Time & Date
Minimum magnitude displayed is 2.5.

Coastal Water Temperatures

Place Temperature

Stations

Nearby Weather Stations

Station Location Temp. Windchill Dew Point Humidity Wind Precip. Elev Updated Type
                   

Watches & Warnings

There are currently no watches in effect.